Huvudsida
METAR-TAF:

METAR-TAF

Flygplatser :

Dakar, Senegal

latitud: 14-44N, longitud: 017-30W, höjd: 27 m

Aktuellt väderrapport

Denna rapport gjordes för 1 timme och 11 minuter sedan, klockan 07:00 UTC
Vind 4 kt från nord
Temperatur 21°C
Fuktighet 88%
Tryck 1013 hPa
Sikt: 8000 m

METAR: GOOY 270700Z 36004KT 8000 NSC 21/19 Q1013 NOSIG

Tid: 08:11 (08:11 UTC)

Väderprognos

Denna rapport gjordes för 2 timmar och 41 minuter sedan, klockan 05:30 UTC
Prognos gäller från 27 kl. 06 UTC till 28 kl. 12 UTC
Vind 10 kt från nord/nordväst
Sikt 10 km eller mer
Inga moln under 1 500 m eller inga cumulonimbus

TAF: GOOY 270530Z 2706/2812 34010KT CAVOK

Aktuella väderrapporter och prognoser från 4000 flygplatser (METAR- och TAF-rapporter).

De tillgängliga stationerna syns som gula och röda prickar på kartan.

För musen över prickarna för att se namnen på stationerna.

Klicka sedan för att få väderrapporter och prognoser.

För att ändra kartan: Klicka på de gröna knapparna med ett svart kors på för att zooma in; den gröna knappen med ett streck på för att zooma ut; eller på de gröna pilarna för angränsande kartor.


METAR-TAF: